Terminal Aerodrome Forecast
Issued by NWS

Home | Current Version | Previous Version | Text Only | Print | Product List | Glossary On
Versions: 1 2 3 4 5 6 7 8 9 10 11 12 13 14
000
FTUS45 KABQ 302320
TAFSAF
TAF
KSAF 302320Z 3100/3124 23011G18KT P6SM FEW090
     FM310200 16008KT P6SM BKN200
     FM311500 17017G27KT P6SM BKN150
     FM311800 20022G32KT P6SM VCSH BKN100=

USA.gov is the U.S. government's official web portal to all federal, state and local government web resources and services.